createdAt,value
2023-03-26T00:01:37.218Z,89.10
2023-03-26T00:04:07.011Z,90.10
2023-03-26T00:06:39.134Z,90.20
2023-03-26T00:09:14.086Z,90.00
2023-03-26T00:11:52.109Z,90.40
2023-03-26T00:14:32.566Z,90.30
2023-03-26T00:17:02.645Z,90.10
2023-03-26T00:19:30.522Z,90.10
2023-03-26T00:22:00.804Z,90.10
2023-03-26T00:24:39.216Z,90.10
2023-03-26T00:27:08.728Z,90.00
2023-03-26T00:29:36.658Z,90.00
2023-03-26T00:32:04.589Z,89.70
2023-03-26T00:34:41.227Z,90.10
2023-03-26T00:37:09.238Z,90.10
2023-03-26T00:39:39.264Z,89.90
2023-03-26T00:42:08.505Z,90.00
2023-03-26T00:44:38.636Z,90.10
2023-03-26T00:47:09.346Z,90.20
2023-03-26T00:49:37.247Z,90.20
2023-03-26T00:52:08.621Z,90.10
2023-03-26T00:54:36.577Z,89.90
2023-03-26T00:57:06.756Z,90.00
2023-03-26T00:59:36.125Z,90.00
2023-03-26T01:02:21.093Z,90.10
2023-03-26T01:05:02.794Z,90.10
2023-03-26T01:07:31.101Z,89.90
2023-03-26T01:10:00.892Z,87.20
2023-03-26T01:12:34.951Z,90.10
2023-03-26T01:15:04.942Z,90.20
2023-03-26T01:17:43.049Z,90.30
2023-03-26T01:20:16.867Z,90.40
2023-03-26T01:22:50.987Z,90.10
2023-03-26T01:25:26.160Z,90.40
2023-03-26T01:27:57.827Z,90.50
2023-03-26T01:30:52.630Z,90.30
2023-03-26T01:33:30.396Z,90.20
2023-03-26T01:36:04.861Z,90.00
2023-03-26T01:38:39.045Z,90.40
2023-03-26T01:41:23.555Z,90.40
2023-03-26T01:44:26.446Z,89.80
2023-03-26T01:47:01.569Z,90.00
2023-03-26T01:49:30.569Z,90.20
2023-03-26T01:51:59.113Z,90.30
2023-03-26T01:54:33.992Z,90.20
2023-03-26T01:57:17.577Z,90.00
2023-03-26T02:00:24.229Z,90.20
2023-03-26T02:03:09.867Z,90.40
2023-03-26T02:05:43.894Z,90.20
2023-03-26T02:08:22.641Z,90.20
2023-03-26T02:10:58.078Z,90.20
2023-03-26T02:13:28.138Z,90.30
2023-03-26T02:16:04.716Z,90.10
2023-03-26T02:18:37.145Z,90.10
2023-03-26T02:21:12.139Z,90.10
2023-03-26T02:23:46.938Z,90.00
2023-03-26T02:26:16.908Z,90.10
2023-03-26T02:28:46.630Z,90.10
2023-03-26T02:31:20.167Z,90.00
2023-03-26T02:33:49.428Z,89.90
2023-03-26T02:36:29.569Z,89.90
2023-03-26T02:39:04.047Z,90.30
2023-03-26T02:41:34.825Z,89.90
2023-03-26T02:44:06.689Z,89.60
2023-03-26T02:46:46.820Z,89.70
2023-03-26T02:49:14.666Z,89.60
2023-03-26T02:51:43.020Z,90.00
2023-03-26T02:54:10.921Z,89.90
2023-03-26T02:56:47.136Z,89.90
2023-03-26T02:59:16.340Z,90.00
2023-03-26T03:01:44.368Z,90.10
2023-03-26T03:04:15.442Z,90.00
2023-03-26T03:06:46.123Z,90.10
2023-03-26T03:09:16.211Z,90.10
2023-03-26T03:11:53.438Z,90.10
2023-03-26T03:14:22.626Z,90.00
2023-03-26T03:16:53.988Z,89.90
2023-03-26T03:19:28.059Z,89.90
2023-03-26T03:21:56.117Z,90.00
2023-03-26T03:24:23.966Z,90.10
2023-03-26T03:26:56.751Z,90.10
2023-03-26T03:29:26.081Z,90.10
2023-03-26T03:31:56.517Z,90.00
2023-03-26T03:34:33.243Z,90.10
2023-03-26T03:37:06.062Z,90.20
2023-03-26T03:39:33.907Z,90.20
2023-03-26T03:42:05.000Z,90.20
2023-03-26T03:44:34.220Z,90.20
2023-03-26T03:47:05.056Z,90.10
2023-03-26T03:49:33.299Z,90.10
2023-03-26T03:52:01.522Z,90.00
2023-03-26T03:54:29.371Z,90.00
2023-03-26T03:57:06.204Z,90.00
2023-03-26T03:59:35.408Z,90.00
2023-03-26T04:02:03.399Z,89.90
2023-03-26T04:04:40.397Z,90.00
2023-03-26T04:07:17.488Z,90.10
2023-03-26T04:09:57.309Z,90.20
2023-03-26T04:12:38.467Z,90.10
2023-03-26T04:15:27.849Z,90.10
2023-03-26T04:17:58.536Z,90.70
2023-03-26T04:20:29.234Z,90.40
2023-03-26T04:22:57.955Z,89.70
2023-03-26T04:25:30.373Z,89.90
2023-03-26T04:28:07.543Z,91.00
2023-03-26T04:30:38.234Z,91.40
2023-03-26T04:33:15.491Z,91.30
2023-03-26T04:38:45.136Z,91.10
2023-03-26T04:41:13.500Z,90.90
2023-03-26T04:43:53.650Z,90.70
2023-03-26T04:46:23.547Z,90.60
2023-03-26T04:48:55.537Z,90.50
2023-03-26T04:51:27.132Z,90.50
2023-03-26T04:53:57.827Z,90.00
2023-03-26T04:56:43.177Z,89.60
2023-03-26T04:59:14.818Z,90.90
2023-03-26T05:01:45.913Z,90.60
2023-03-26T05:04:24.211Z,87.40
2023-03-26T05:06:52.229Z,89.60
2023-03-26T05:09:23.102Z,89.90
2023-03-26T05:11:54.161Z,90.20
2023-03-26T05:14:22.017Z,91.30
2023-03-26T05:16:53.164Z,90.80
2023-03-26T05:19:24.324Z,89.70
2023-03-26T05:21:52.163Z,87.30
2023-03-26T05:24:20.164Z,88.50
2023-03-26T05:26:48.075Z,88.00
2023-03-26T05:29:17.624Z,87.40
2023-03-26T05:31:45.530Z,90.00
2023-03-26T05:34:14.742Z,90.50
2023-03-26T05:36:43.929Z,89.40
2023-03-26T05:39:12.479Z,88.00
2023-03-26T05:41:40.372Z,88.10
2023-03-26T05:44:14.332Z,89.60
2023-03-26T05:46:48.091Z,90.40
2023-03-26T05:49:17.225Z,90.70
2023-03-26T05:51:47.558Z,91.30
2023-03-26T05:54:15.385Z,91.40
2023-03-26T05:56:48.522Z,91.40
2023-03-26T05:59:16.462Z,91.80
2023-03-26T06:01:44.965Z,95.70
2023-03-26T06:04:15.934Z,93.00
2023-03-26T06:06:48.527Z,92.30
2023-03-26T06:09:19.631Z,92.10
2023-03-26T06:11:47.478Z,92.00
2023-03-26T06:14:15.459Z,92.00
2023-03-26T06:16:55.200Z,91.90
2023-03-26T06:19:26.312Z,91.90
2023-03-26T06:21:57.715Z,91.50
2023-03-26T06:24:25.638Z,91.40
2023-03-26T06:27:02.962Z,91.90
2023-03-26T06:29:30.886Z,91.90
2023-03-26T06:32:09.139Z,92.00
2023-03-26T06:35:09.899Z,90.60
2023-03-26T06:37:42.303Z,91.70
2023-03-26T06:40:10.975Z,92.10
2023-03-26T06:43:08.268Z,92.10
2023-03-26T06:45:30.191Z,92.00
2023-03-26T06:48:08.256Z,92.10
2023-03-26T06:50:38.960Z,92.10
2023-03-26T06:53:08.176Z,91.70
2023-03-26T06:55:36.030Z,92.30
2023-03-26T06:58:06.953Z,93.30
2023-03-26T07:00:34.815Z,93.00
2023-03-26T07:03:04.884Z,92.80
2023-03-26T07:05:33.190Z,92.60
2023-03-26T07:08:01.090Z,92.40
2023-03-26T07:10:30.576Z,92.80
2023-03-26T07:12:58.630Z,93.00
2023-03-26T07:15:32.379Z,93.00
2023-03-26T07:18:05.499Z,93.00
2023-03-26T07:20:33.985Z,93.10
2023-03-26T07:23:02.564Z,93.30
2023-03-26T07:25:32.803Z,93.40
2023-03-26T07:28:21.095Z,93.50
2023-03-26T07:30:59.754Z,93.40
2023-03-26T07:33:37.632Z,93.10
2023-03-26T07:36:17.278Z,92.40
2023-03-26T07:38:59.537Z,92.60
2023-03-26T07:41:38.231Z,93.60
2023-03-26T07:44:31.193Z,93.60
2023-03-26T07:47:02.202Z,93.40
2023-03-26T07:49:34.004Z,93.40
2023-03-26T07:52:02.368Z,92.70
2023-03-26T07:54:42.386Z,92.90
2023-03-26T07:57:23.084Z,93.30
2023-03-26T07:59:56.777Z,92.70
2023-03-26T08:02:42.334Z,93.00
2023-03-26T08:05:28.398Z,93.10
2023-03-26T08:08:13.648Z,93.10
2023-03-26T08:10:56.103Z,93.00
2023-03-26T08:13:36.428Z,92.60
2023-03-26T08:16:09.884Z,92.20
2023-03-26T08:18:50.241Z,92.10
2023-03-26T08:21:22.885Z,92.60
2023-03-26T08:24:05.460Z,93.30
2023-03-26T08:26:41.309Z,93.70
2023-03-26T08:29:21.369Z,93.30
2023-03-26T08:31:50.615Z,93.60
2023-03-26T08:34:18.463Z,94.20
2023-03-26T08:36:46.725Z,94.30
2023-03-26T08:39:14.620Z,94.70
2023-03-26T08:42:19.901Z,96.10
2023-03-26T08:45:24.260Z,95.60
2023-03-26T08:48:19.793Z,95.60
2023-03-26T08:51:12.770Z,95.80
2023-03-26T08:54:20.624Z,95.20
2023-03-26T08:56:56.661Z,94.50
2023-03-26T09:00:03.016Z,95.50
2023-03-26T09:03:11.894Z,95.90
2023-03-26T09:06:08.014Z,96.10
2023-03-26T09:09:19.029Z,96.30
2023-03-26T09:12:19.626Z,96.40
2023-03-26T09:15:34.681Z,96.40
2023-03-26T09:18:38.401Z,97.00
2023-03-26T09:21:56.700Z,97.50
2023-03-26T09:25:26.094Z,97.00
2023-03-26T09:28:43.319Z,97.60
2023-03-26T09:31:34.138Z,98.50
2023-03-26T09:34:31.583Z,97.50
2023-03-26T09:37:31.986Z,97.50
2023-03-26T09:40:10.630Z,96.90
2023-03-26T09:42:45.310Z,97.90
2023-03-26T09:45:49.075Z,97.30
2023-03-26T09:48:52.470Z,96.60
2023-03-26T09:51:44.191Z,97.20
2023-03-26T09:54:33.315Z,97.90
2023-03-26T09:57:24.183Z,98.20
2023-03-26T10:00:10.291Z,98.70
2023-03-26T10:03:06.972Z,99.10
2023-03-26T10:05:53.046Z,99.30
2023-03-26T10:08:35.687Z,99.70
2023-03-26T10:11:17.175Z,99.90
2023-03-26T10:13:59.325Z,99.90
2023-03-26T10:16:38.043Z,99.90
2023-03-26T10:19:22.212Z,99.90
2023-03-26T10:21:57.374Z,99.90
2023-03-26T10:24:40.062Z,99.90
2023-03-26T10:27:28.196Z,99.90
2023-03-26T10:30:25.441Z,99.90
2023-03-26T10:33:03.711Z,99.90
2023-03-26T10:35:46.282Z,99.90
2023-03-26T10:38:23.012Z,99.90
2023-03-26T10:41:00.516Z,99.90
2023-03-26T10:44:19.557Z,99.90
2023-03-26T10:47:08.351Z,99.90
2023-03-26T10:50:04.647Z,99.90
2023-03-26T10:52:42.104Z,99.90
2023-03-26T10:55:24.992Z,99.90
2023-03-26T10:57:59.880Z,99.90
2023-03-26T11:00:35.759Z,99.90
2023-03-26T11:03:27.976Z,99.90
2023-03-26T11:06:04.931Z,99.90
2023-03-26T11:08:40.365Z,99.90
2023-03-26T11:11:24.250Z,99.90
2023-03-26T11:14:06.504Z,99.90
2023-03-26T11:16:52.242Z,99.90
2023-03-26T11:19:29.939Z,99.90
2023-03-26T11:22:05.506Z,99.90
2023-03-26T11:24:56.826Z,99.90
2023-03-26T11:27:32.710Z,99.90
2023-03-26T11:30:21.333Z,99.90
2023-03-26T11:32:55.595Z,99.90
2023-03-26T11:35:40.513Z,99.90
2023-03-26T11:38:19.429Z,99.90
2023-03-26T11:40:54.018Z,99.90
2023-03-26T11:43:41.742Z,99.90
2023-03-26T11:46:30.383Z,99.90
2023-03-26T11:49:06.642Z,99.90
2023-03-26T11:51:36.685Z,99.90
2023-03-26T11:54:06.222Z,99.90
2023-03-26T11:57:05.293Z,99.90
2023-03-26T11:59:48.931Z,99.90
2023-03-26T12:02:40.853Z,99.90
2023-03-26T12:05:17.911Z,99.90
2023-03-26T12:07:57.078Z,99.90
2023-03-26T12:10:34.807Z,99.90
2023-03-26T12:13:04.370Z,99.90
2023-03-26T12:15:42.825Z,99.90
2023-03-26T12:18:26.761Z,99.90
2023-03-26T12:21:10.663Z,99.90
2023-03-26T12:23:57.092Z,99.90
2023-03-26T12:26:39.594Z,99.90
2023-03-26T12:29:13.442Z,99.90
2023-03-26T12:31:55.300Z,99.90
2023-03-26T12:34:35.636Z,99.90
2023-03-26T12:37:33.960Z,99.90
2023-03-26T12:40:29.044Z,99.90
2023-03-26T12:44:51.385Z,99.90
2023-03-26T12:47:55.026Z,99.90
2023-03-26T12:48:42.316Z,99.90
2023-03-26T12:51:20.292Z,99.90
2023-03-26T12:54:18.091Z,99.90
2023-03-26T12:57:11.840Z,99.90
2023-03-26T12:59:52.274Z,99.90
2023-03-26T13:02:58.894Z,99.90
2023-03-26T13:05:44.019Z,99.90
2023-03-26T13:08:44.624Z,99.90
2023-03-26T13:11:37.770Z,99.90
2023-03-26T13:14:35.858Z,99.90
2023-03-26T13:17:17.389Z,99.90
2023-03-26T13:19:53.668Z,99.90
2023-03-26T13:22:34.601Z,99.90
2023-03-26T13:25:23.261Z,99.90
2023-03-26T13:28:10.760Z,99.90
2023-03-26T13:30:45.746Z,99.90
2023-03-26T13:33:35.836Z,99.90
2023-03-26T13:36:23.163Z,99.90
2023-03-26T13:39:14.324Z,99.90
2023-03-26T13:42:19.268Z,99.90
2023-03-26T13:45:04.836Z,99.90
2023-03-26T13:47:37.540Z,99.90
2023-03-26T13:53:06.421Z,99.90
2023-03-26T13:55:39.882Z,99.90
2023-03-26T13:58:19.391Z,99.90
2023-03-26T14:00:57.983Z,99.90
2023-03-26T14:03:37.547Z,99.90
2023-03-26T14:06:11.741Z,99.90
2023-03-26T14:08:43.530Z,99.90
2023-03-26T14:11:17.864Z,99.90
2023-03-26T14:13:52.833Z,99.90
2023-03-26T14:16:34.794Z,99.90
2023-03-26T14:19:25.526Z,99.90
2023-03-26T14:22:14.215Z,99.90
2023-03-26T14:25:27.705Z,99.90
2023-03-26T14:28:15.054Z,99.90
2023-03-26T14:31:08.681Z,99.90
2023-03-26T14:34:08.500Z,99.90
2023-03-26T14:37:27.492Z,99.90
2023-03-26T14:40:25.187Z,99.90
2023-03-26T14:42:58.867Z,99.90
2023-03-26T14:46:05.232Z,99.90
2023-03-26T14:49:08.551Z,99.90
2023-03-26T14:51:59.076Z,99.90
2023-03-26T14:54:29.842Z,99.90
2023-03-26T14:57:42.717Z,99.90
2023-03-26T15:00:38.202Z,99.90
2023-03-26T15:03:42.926Z,99.90
2023-03-26T15:06:51.327Z,99.90
2023-03-26T15:10:09.987Z,99.90
2023-03-26T15:13:09.995Z,99.90
2023-03-26T15:16:26.231Z,99.90
2023-03-26T15:19:36.567Z,99.90
2023-03-26T15:22:51.951Z,99.90
2023-03-26T15:25:46.589Z,99.90
2023-03-26T15:28:50.485Z,99.90
2023-03-26T15:31:42.977Z,99.90
2023-03-26T15:34:49.435Z,99.90
2023-03-26T15:38:02.479Z,99.90
2023-03-26T15:40:49.350Z,99.90
2023-03-26T15:43:20.076Z,99.90
2023-03-26T15:45:54.822Z,99.90
2023-03-26T15:48:44.600Z,99.90
2023-03-26T15:51:30.989Z,99.90
2023-03-26T15:54:04.734Z,99.90
2023-03-26T15:57:08.646Z,99.90
2023-03-26T15:59:49.484Z,99.90
2023-03-26T16:02:26.325Z,99.90
2023-03-26T16:05:05.794Z,99.90
2023-03-26T16:07:52.029Z,99.90
2023-03-26T16:10:44.525Z,99.90
2023-03-26T16:13:33.445Z,99.90
2023-03-26T16:16:46.596Z,99.90
2023-03-26T16:19:49.394Z,99.90
2023-03-26T16:22:56.961Z,99.90
2023-03-26T16:25:35.202Z,99.90
2023-03-26T16:28:30.803Z,99.90
2023-03-26T16:31:37.178Z,99.90
2023-03-26T16:34:27.735Z,99.90
2023-03-26T16:36:57.875Z,99.90
2023-03-26T16:39:41.268Z,99.90
2023-03-26T16:42:31.586Z,99.90
2023-03-26T16:45:14.840Z,99.90
2023-03-26T16:47:54.354Z,99.90
2023-03-26T16:50:55.311Z,99.90
2023-03-26T16:53:30.208Z,99.90
2023-03-26T16:56:12.682Z,99.90
2023-03-26T16:59:21.545Z,99.90
2023-03-26T17:02:16.690Z,99.90
2023-03-26T17:05:02.997Z,99.90
2023-03-26T17:07:48.252Z,99.90
2023-03-26T17:10:23.537Z,99.90
2023-03-26T17:13:08.498Z,99.90
2023-03-26T17:15:50.745Z,99.90
2023-03-26T17:18:40.891Z,99.90
2023-03-26T17:21:18.735Z,99.90
2023-03-26T17:24:27.358Z,99.90
2023-03-26T17:27:02.355Z,99.90
2023-03-26T17:30:18.429Z,99.90
2023-03-26T17:33:00.523Z,99.90
2023-03-26T17:35:48.518Z,99.90
2023-03-26T17:38:59.892Z,99.90
2023-03-26T17:42:08.278Z,99.90
2023-03-26T17:44:55.521Z,99.90
2023-03-26T17:47:39.166Z,99.90
2023-03-26T17:50:14.480Z,99.90
2023-03-26T17:52:57.600Z,99.90
2023-03-26T17:55:34.276Z,99.90
2023-03-26T17:58:06.673Z,99.90
2023-03-26T18:00:41.033Z,99.90
2023-03-26T18:03:15.061Z,99.90
2023-03-26T18:05:49.238Z,99.90
2023-03-26T18:09:10.567Z,99.90
2023-03-26T18:12:00.434Z,99.80
2023-03-26T18:15:01.052Z,99.70
2023-03-26T18:17:42.417Z,98.80
2023-03-26T18:20:23.194Z,99.90
2023-03-26T18:22:54.960Z,99.70
2023-03-26T18:25:32.115Z,98.60
2023-03-26T18:28:03.265Z,98.60
2023-03-26T18:30:31.223Z,99.20
2023-03-26T18:33:03.046Z,97.90
2023-03-26T18:35:42.783Z,98.10
2023-03-26T18:38:16.829Z,98.50
2023-03-26T18:40:47.120Z,97.90
2023-03-26T18:43:28.890Z,97.80
2023-03-26T18:46:02.612Z,97.10
2023-03-26T18:48:31.145Z,97.70
2023-03-26T18:51:04.992Z,97.50
2023-03-26T18:53:40.144Z,97.40
2023-03-26T18:56:33.518Z,97.20
2023-03-26T18:59:02.856Z,97.10
2023-03-26T19:01:40.017Z,97.70
2023-03-26T19:04:09.339Z,96.70
2023-03-26T19:06:42.921Z,97.00
2023-03-26T19:09:30.890Z,96.40
2023-03-26T19:12:08.382Z,96.40
2023-03-26T19:15:06.691Z,96.40
2023-03-26T19:17:43.510Z,96.50
2023-03-26T19:20:20.099Z,95.30
2023-03-26T19:22:55.285Z,95.50
2023-03-26T19:25:26.545Z,95.60
2023-03-26T19:27:56.851Z,96.40
2023-03-26T19:30:31.727Z,96.20
2023-03-26T19:33:12.226Z,96.50
2023-03-26T19:35:56.136Z,95.80
2023-03-26T19:38:27.070Z,96.40
2023-03-26T19:41:01.788Z,94.20
2023-03-26T19:43:53.747Z,94.10
2023-03-26T19:46:24.660Z,94.70
2023-03-26T19:48:54.536Z,94.10
2023-03-26T19:51:25.533Z,94.80
2023-03-26T19:53:55.370Z,94.60
2023-03-26T19:56:29.540Z,95.90
2023-03-26T19:58:59.262Z,94.90
2023-03-26T20:01:29.640Z,94.60
2023-03-26T20:04:06.193Z,93.30
2023-03-26T20:06:43.160Z,93.40
2023-03-26T20:09:16.237Z,93.10
2023-03-26T20:11:52.481Z,92.90
2023-03-26T20:14:26.133Z,93.30
2023-03-26T20:17:03.470Z,94.30
2023-03-26T20:19:38.954Z,93.50
2023-03-26T20:22:07.966Z,93.00
2023-03-26T20:24:35.974Z,92.70
2023-03-26T20:27:08.490Z,92.50
2023-03-26T20:29:55.759Z,92.20
2023-03-26T20:32:34.650Z,92.10
2023-03-26T20:35:03.716Z,92.80
2023-03-26T20:37:31.576Z,92.30
2023-03-26T20:40:06.680Z,92.30
2023-03-26T20:42:41.340Z,91.90
2023-03-26T20:45:18.552Z,92.50
2023-03-26T20:47:53.930Z,92.20
2023-03-26T20:50:35.736Z,92.30
2023-03-26T20:53:06.771Z,92.00
2023-03-26T20:55:37.717Z,92.20
2023-03-26T20:58:05.601Z,91.70
2023-03-26T21:00:35.116Z,91.70
2023-03-26T21:03:15.269Z,91.80
2023-03-26T21:05:48.361Z,91.90
2023-03-26T21:08:19.820Z,92.20
2023-03-26T21:10:48.504Z,91.70
2023-03-26T21:13:32.704Z,91.70
2023-03-26T21:16:02.405Z,92.00
2023-03-26T21:18:43.444Z,91.90
2023-03-26T21:21:39.541Z,92.10
2023-03-26T21:24:17.122Z,91.80
2023-03-26T21:26:56.732Z,91.30
2023-03-26T21:29:25.073Z,91.60
2023-03-26T21:32:00.266Z,91.80
2023-03-26T21:34:35.104Z,90.80
2023-03-26T21:37:04.681Z,91.80
2023-03-26T21:39:44.845Z,91.50
2023-03-26T21:42:22.049Z,92.30
2023-03-26T21:44:53.371Z,91.00
2023-03-26T21:47:28.419Z,90.90
2023-03-26T21:50:10.381Z,91.70
2023-03-26T21:52:47.021Z,91.00
2023-03-26T21:55:25.782Z,91.30
2023-03-26T21:58:16.794Z,93.10
2023-03-26T22:00:59.889Z,91.40
2023-03-26T22:03:56.050Z,91.10
2023-03-26T22:06:40.879Z,90.90
2023-03-26T22:09:11.860Z,91.20
2023-03-26T22:11:48.375Z,92.30
2023-03-26T22:14:16.231Z,92.60
2023-03-26T22:16:44.089Z,91.10
2023-03-26T22:19:16.043Z,91.60
2023-03-26T22:21:43.911Z,92.10
2023-03-26T22:24:14.217Z,92.40
2023-03-26T22:26:42.096Z,93.30
2023-03-26T22:29:10.200Z,92.40
2023-03-26T22:31:39.145Z,91.70
2023-03-26T22:34:10.331Z,91.10
2023-03-26T22:36:40.458Z,91.10
2023-03-26T22:39:10.813Z,91.10
2023-03-26T22:41:44.623Z,91.00
2023-03-26T22:44:20.111Z,93.50
2023-03-26T22:46:51.470Z,91.10
2023-03-26T22:49:27.396Z,91.90
2023-03-26T22:52:07.870Z,89.50
2023-03-26T22:54:36.505Z,91.10
2023-03-26T22:57:07.591Z,94.80
2023-03-26T22:59:38.361Z,91.30
2023-03-26T23:02:06.458Z,90.60
2023-03-26T23:04:34.469Z,91.10
2023-03-26T23:07:04.074Z,89.50
2023-03-26T23:09:38.067Z,91.60
2023-03-26T23:12:06.597Z,92.80
2023-03-26T23:14:34.469Z,90.60
2023-03-26T23:17:05.395Z,90.80
2023-03-26T23:19:34.557Z,90.90
2023-03-26T23:22:03.777Z,90.90
2023-03-26T23:24:31.656Z,93.60
2023-03-26T23:26:59.549Z,92.80
2023-03-26T23:29:31.726Z,92.00
2023-03-26T23:31:59.745Z,92.80
2023-03-26T23:34:40.247Z,91.30
2023-03-26T23:37:29.311Z,92.10
2023-03-26T23:39:58.607Z,94.90
2023-03-26T23:42:34.438Z,93.80
2023-03-26T23:45:09.186Z,91.40
2023-03-26T23:47:46.662Z,91.30
2023-03-26T23:50:17.976Z,90.70
2023-03-26T23:52:47.224Z,92.50
2023-03-26T23:55:35.459Z,93.40
2023-03-26T23:58:09.398Z,91.60
